sensor_id;sensor_type;location;lat;lon;timestamp;P1;durP1;ratioP1;P2;durP2;ratioP2
9745;SDS011;4912;50.836;12.958;2024-01-11T00:00:21;28.87;;;11.40;;
9745;SDS011;4912;50.836;12.958;2024-01-11T00:02:52;22.75;;;9.85;;
9745;SDS011;4912;50.836;12.958;2024-01-11T00:05:23;22.75;;;9.93;;
9745;SDS011;4912;50.836;12.958;2024-01-11T00:07:53;27.23;;;10.88;;
9745;SDS011;4912;50.836;12.958;2024-01-11T00:10:24;23.75;;;10.02;;
9745;SDS011;4912;50.836;12.958;2024-01-11T00:12:57;24.58;;;9.70;;
9745;SDS011;4912;50.836;12.958;2024-01-11T00:15:28;20.17;;;9.50;;
9745;SDS011;4912;50.836;12.958;2024-01-11T00:17:59;22.38;;;9.23;;
9745;SDS011;4912;50.836;12.958;2024-01-11T00:20:30;20.30;;;9.88;;
9745;SDS011;4912;50.836;12.958;2024-01-11T00:23:01;21.63;;;9.83;;
9745;SDS011;4912;50.836;12.958;2024-01-11T00:25:32;24.05;;;9.98;;
9745;SDS011;4912;50.836;12.958;2024-01-11T00:28:06;22.27;;;10.13;;
9745;SDS011;4912;50.836;12.958;2024-01-11T00:30:36;21.27;;;9.27;;
9745;SDS011;4912;50.836;12.958;2024-01-11T00:33:07;26.05;;;10.50;;
9745;SDS011;4912;50.836;12.958;2024-01-11T00:35:38;22.95;;;10.90;;
9745;SDS011;4912;50.836;12.958;2024-01-11T00:38:09;21.85;;;9.68;;
9745;SDS011;4912;50.836;12.958;2024-01-11T00:40:40;22.77;;;10.60;;
9745;SDS011;4912;50.836;12.958;2024-01-11T00:43:13;27.70;;;10.25;;
9745;SDS011;4912;50.836;12.958;2024-01-11T00:45:43;26.53;;;9.87;;
9745;SDS011;4912;50.836;12.958;2024-01-11T00:48:15;25.30;;;9.87;;
9745;SDS011;4912;50.836;12.958;2024-01-11T00:50:46;22.33;;;10.27;;
9745;SDS011;4912;50.836;12.958;2024-01-11T00:53:16;23.70;;;10.63;;
9745;SDS011;4912;50.836;12.958;2024-01-11T00:55:47;20.25;;;9.07;;
9745;SDS011;4912;50.836;12.958;2024-01-11T00:58:20;20.67;;;9.10;;
9745;SDS011;4912;50.836;12.958;2024-01-11T01:00:51;23.80;;;9.80;;
9745;SDS011;4912;50.836;12.958;2024-01-11T01:03:22;25.40;;;10.13;;
9745;SDS011;4912;50.836;12.958;2024-01-11T01:05:53;25.08;;;10.65;;
9745;SDS011;4912;50.836;12.958;2024-01-11T01:08:23;24.00;;;9.90;;
9745;SDS011;4912;50.836;12.958;2024-01-11T01:10:54;26.48;;;10.05;;
9745;SDS011;4912;50.836;12.958;2024-01-11T01:13:27;25.27;;;10.50;;
9745;SDS011;4912;50.836;12.958;2024-01-11T01:15:58;23.20;;;10.43;;
9745;SDS011;4912;50.836;12.958;2024-01-11T01:18:29;20.85;;;9.70;;
9745;SDS011;4912;50.836;12.958;2024-01-11T01:21:00;23.20;;;9.50;;
9745;SDS011;4912;50.836;12.958;2024-01-11T01:23:33;21.53;;;9.73;;
9745;SDS011;4912;50.836;12.958;2024-01-11T01:26:04;27.55;;;9.48;;
9745;SDS011;4912;50.836;12.958;2024-01-11T01:28:38;24.43;;;10.53;;
9745;SDS011;4912;50.836;12.958;2024-01-11T01:31:09;22.20;;;9.97;;
9745;SDS011;4912;50.836;12.958;2024-01-11T01:33:40;23.35;;;9.82;;
9745;SDS011;4912;50.836;12.958;2024-01-11T01:36:11;19.02;;;9.20;;
9745;SDS011;4912;50.836;12.958;2024-01-11T01:38:42;26.13;;;10.55;;
9745;SDS011;4912;50.836;12.958;2024-01-11T01:41:12;19.00;;;7.47;;
9745;SDS011;4912;50.836;12.958;2024-01-11T01:43:46;22.85;;;10.07;;
9745;SDS011;4912;50.836;12.958;2024-01-11T01:46:18;23.50;;;10.03;;
9745;SDS011;4912;50.836;12.958;2024-01-11T01:48:53;23.00;;;9.40;;
9745;SDS011;4912;50.836;12.958;2024-01-11T01:51:27;23.80;;;9.87;;
9745;SDS011;4912;50.836;12.958;2024-01-11T01:54:00;19.13;;;9.43;;
9745;SDS011;4912;50.836;12.958;2024-01-11T01:56:32;23.67;;;9.50;;
9745;SDS011;4912;50.836;12.958;2024-01-11T01:59:06;21.23;;;9.73;;
9745;SDS011;4912;50.836;12.958;2024-01-11T02:01:37;23.97;;;9.97;;
9745;SDS011;4912;50.836;12.958;2024-01-11T02:04:09;19.47;;;9.27;;
9745;SDS011;4912;50.836;12.958;2024-01-11T02:06:41;22.53;;;8.90;;
9745;SDS011;4912;50.836;12.958;2024-01-11T02:09:14;21.63;;;9.97;;
9745;SDS011;4912;50.836;12.958;2024-01-11T02:14:19;31.57;;;12.97;;
9745;SDS011;4912;50.836;12.958;2024-01-11T02:16:49;32.50;;;13.17;;
9745;SDS011;4912;50.836;12.958;2024-01-11T02:19:23;31.48;;;14.15;;
9745;SDS011;4912;50.836;12.958;2024-01-11T02:21:58;37.33;;;14.50;;
9745;SDS011;4912;50.836;12.958;2024-01-11T02:24:40;31.03;;;14.13;;
9745;SDS011;4912;50.836;12.958;2024-01-11T02:27:11;33.57;;;13.27;;
9745;SDS011;4912;50.836;12.958;2024-01-11T02:29:41;32.10;;;14.40;;
9745;SDS011;4912;50.836;12.958;2024-01-11T02:32:12;31.67;;;13.57;;
9745;SDS011;4912;50.836;12.958;2024-01-11T02:34:43;29.38;;;13.15;;
9745;SDS011;4912;50.836;12.958;2024-01-11T02:37:15;32.80;;;14.07;;
9745;SDS011;4912;50.836;12.958;2024-01-11T02:39:50;29.10;;;12.70;;
9745;SDS011;4912;50.836;12.958;2024-01-11T02:42:20;26.73;;;12.13;;
9745;SDS011;4912;50.836;12.958;2024-01-11T02:44:51;17.70;;;8.60;;
9745;SDS011;4912;50.836;12.958;2024-01-11T02:47:21;26.08;;;11.35;;
9745;SDS011;4912;50.836;12.958;2024-01-11T02:49:52;28.80;;;12.50;;
9745;SDS011;4912;50.836;12.958;2024-01-11T02:52:23;32.78;;;12.18;;
9745;SDS011;4912;50.836;12.958;2024-01-11T02:54:56;31.30;;;12.70;;
9745;SDS011;4912;50.836;12.958;2024-01-11T02:57:27;27.03;;;12.80;;
9745;SDS011;4912;50.836;12.958;2024-01-11T02:59:58;32.58;;;13.07;;
9745;SDS011;4912;50.836;12.958;2024-01-11T03:02:29;32.67;;;12.45;;
9745;SDS011;4912;50.836;12.958;2024-01-11T03:04:59;26.33;;;11.65;;
9745;SDS011;4912;50.836;12.958;2024-01-11T03:07:30;30.80;;;12.85;;
9745;SDS011;4912;50.836;12.958;2024-01-11T03:10:04;28.02;;;12.75;;
9745;SDS011;4912;50.836;12.958;2024-01-11T03:12:35;28.50;;;13.13;;
9745;SDS011;4912;50.836;12.958;2024-01-11T03:15:06;30.15;;;12.55;;
9745;SDS011;4912;50.836;12.958;2024-01-11T03:17:38;30.03;;;12.33;;
9745;SDS011;4912;50.836;12.958;2024-01-11T03:20:09;31.13;;;13.85;;
9745;SDS011;4912;50.836;12.958;2024-01-11T03:22:44;29.77;;;12.03;;
9745;SDS011;4912;50.836;12.958;2024-01-11T03:25:18;30.03;;;12.73;;
9745;SDS011;4912;50.836;12.958;2024-01-11T03:27:49;31.37;;;12.93;;
9745;SDS011;4912;50.836;12.958;2024-01-11T03:30:19;31.17;;;12.80;;
9745;SDS011;4912;50.836;12.958;2024-01-11T03:32:50;30.92;;;14.05;;
9745;SDS011;4912;50.836;12.958;2024-01-11T03:35:21;36.53;;;14.35;;
9745;SDS011;4912;50.836;12.958;2024-01-11T03:37:52;31.90;;;13.55;;
9745;SDS011;4912;50.836;12.958;2024-01-11T03:40:25;29.77;;;13.23;;
9745;SDS011;4912;50.836;12.958;2024-01-11T03:42:56;35.30;;;14.27;;
9745;SDS011;4912;50.836;12.958;2024-01-11T03:45:26;33.20;;;13.70;;
9745;SDS011;4912;50.836;12.958;2024-01-11T03:47:57;37.83;;;15.73;;
9745;SDS011;4912;50.836;12.958;2024-01-11T03:50:28;37.97;;;15.25;;
9745;SDS011;4912;50.836;12.958;2024-01-11T03:52:58;36.72;;;14.85;;
9745;SDS011;4912;50.836;12.958;2024-01-11T03:55:32;34.15;;;15.00;;
9745;SDS011;4912;50.836;12.958;2024-01-11T03:58:03;39.20;;;16.13;;
9745;SDS011;4912;50.836;12.958;2024-01-11T04:00:33;37.40;;;15.73;;
9745;SDS011;4912;50.836;12.958;2024-01-11T04:03:06;40.30;;;15.95;;
9745;SDS011;4912;50.836;12.958;2024-01-11T04:05:36;42.07;;;16.40;;
9745;SDS011;4912;50.836;12.958;2024-01-11T04:08:07;40.53;;;15.20;;
9745;SDS011;4912;50.836;12.958;2024-01-11T04:10:40;40.15;;;15.70;;
9745;SDS011;4912;50.836;12.958;2024-01-11T04:13:11;34.87;;;14.43;;
9745;SDS011;4912;50.836;12.958;2024-01-11T04:15:42;36.08;;;15.68;;
9745;SDS011;4912;50.836;12.958;2024-01-11T04:18:13;36.20;;;15.05;;
9745;SDS011;4912;50.836;12.958;2024-01-11T04:20:44;40.97;;;15.35;;
9745;SDS011;4912;50.836;12.958;2024-01-11T04:23:14;39.40;;;15.73;;
9745;SDS011;4912;50.836;12.958;2024-01-11T04:25:47;37.75;;;14.32;;
9745;SDS011;4912;50.836;12.958;2024-01-11T04:28:18;37.70;;;15.53;;
9745;SDS011;4912;50.836;12.958;2024-01-11T04:30:49;36.63;;;15.60;;
9745;SDS011;4912;50.836;12.958;2024-01-11T04:33:19;37.63;;;15.93;;
9745;SDS011;4912;50.836;12.958;2024-01-11T04:35:50;51.67;;;21.92;;
9745;SDS011;4912;50.836;12.958;2024-01-11T04:38:21;42.45;;;17.55;;
9745;SDS011;4912;50.836;12.958;2024-01-11T04:40:54;45.10;;;18.27;;
9745;SDS011;4912;50.836;12.958;2024-01-11T04:43:24;46.93;;;18.00;;
9745;SDS011;4912;50.836;12.958;2024-01-11T04:45:52;45.20;;;18.83;;
9745;SDS011;4912;50.836;12.958;2024-01-11T04:48:23;40.53;;;17.08;;
9745;SDS011;4912;50.836;12.958;2024-01-11T04:50:54;46.85;;;17.75;;
9745;SDS011;4912;50.836;12.958;2024-01-11T04:53:25;43.00;;;17.02;;
9745;SDS011;4912;50.836;12.958;2024-01-11T04:55:58;44.38;;;17.63;;
9745;SDS011;4912;50.836;12.958;2024-01-11T04:58:28;47.50;;;18.73;;
9745;SDS011;4912;50.836;12.958;2024-01-11T05:00:59;46.95;;;18.67;;
9745;SDS011;4912;50.836;12.958;2024-01-11T05:06:01;49.90;;;19.67;;
9745;SDS011;4912;50.836;12.958;2024-01-11T05:08:32;55.22;;;19.92;;
9745;SDS011;4912;50.836;12.958;2024-01-11T05:11:05;49.88;;;20.45;;
9745;SDS011;4912;50.836;12.958;2024-01-11T05:13:36;52.27;;;18.67;;
9745;SDS011;4912;50.836;12.958;2024-01-11T05:16:06;48.13;;;20.02;;
9745;SDS011;4912;50.836;12.958;2024-01-11T05:18:38;50.10;;;20.70;;
9745;SDS011;4912;50.836;12.958;2024-01-11T05:21:09;48.67;;;19.98;;
9745;SDS011;4912;50.836;12.958;2024-01-11T05:23:40;58.47;;;22.55;;
9745;SDS011;4912;50.836;12.958;2024-01-11T05:26:14;55.67;;;21.87;;
9745;SDS011;4912;50.836;12.958;2024-01-11T05:28:46;48.53;;;20.47;;
9745;SDS011;4912;50.836;12.958;2024-01-11T05:31:16;49.83;;;21.98;;
9745;SDS011;4912;50.836;12.958;2024-01-11T05:33:47;56.70;;;22.55;;
9745;SDS011;4912;50.836;12.958;2024-01-11T05:36:18;57.05;;;23.60;;
9745;SDS011;4912;50.836;12.958;2024-01-11T05:38:48;54.13;;;23.45;;
9745;SDS011;4912;50.836;12.958;2024-01-11T05:41:22;63.50;;;25.15;;
9745;SDS011;4912;50.836;12.958;2024-01-11T05:43:52;59.23;;;22.60;;
9745;SDS011;4912;50.836;12.958;2024-01-11T05:46:23;56.85;;;21.50;;
9745;SDS011;4912;50.836;12.958;2024-01-11T05:48:54;61.03;;;22.40;;
9745;SDS011;4912;50.836;12.958;2024-01-11T05:51:25;51.42;;;21.58;;
9745;SDS011;4912;50.836;12.958;2024-01-11T05:53:56;57.63;;;21.02;;
9745;SDS011;4912;50.836;12.958;2024-01-11T05:56:29;48.08;;;20.92;;
9745;SDS011;4912;50.836;12.958;2024-01-11T05:58:59;49.60;;;20.17;;
9745;SDS011;4912;50.836;12.958;2024-01-11T06:01:30;51.97;;;21.42;;
9745;SDS011;4912;50.836;12.958;2024-01-11T06:04:01;52.85;;;20.83;;
9745;SDS011;4912;50.836;12.958;2024-01-11T06:06:32;54.73;;;20.97;;
9745;SDS011;4912;50.836;12.958;2024-01-11T06:09:03;53.47;;;22.63;;
9745;SDS011;4912;50.836;12.958;2024-01-11T06:11:36;55.33;;;21.42;;
9745;SDS011;4912;50.836;12.958;2024-01-11T06:14:07;59.07;;;21.90;;
9745;SDS011;4912;50.836;12.958;2024-01-11T06:16:38;49.95;;;20.88;;
9745;SDS011;4912;50.836;12.958;2024-01-11T06:19:10;54.93;;;21.27;;
9745;SDS011;4912;50.836;12.958;2024-01-11T06:21:41;59.88;;;21.85;;
9745;SDS011;4912;50.836;12.958;2024-01-11T06:24:11;59.85;;;22.55;;
9745;SDS011;4912;50.836;12.958;2024-01-11T06:26:45;52.30;;;21.08;;
9745;SDS011;4912;50.836;12.958;2024-01-11T06:29:15;54.27;;;20.93;;
9745;SDS011;4912;50.836;12.958;2024-01-11T06:31:46;59.50;;;23.38;;
9745;SDS011;4912;50.836;12.958;2024-01-11T06:34:17;56.85;;;22.77;;
9745;SDS011;4912;50.836;12.958;2024-01-11T06:36:47;56.38;;;22.27;;
9745;SDS011;4912;50.836;12.958;2024-01-11T06:39:18;55.72;;;22.50;;
9745;SDS011;4912;50.836;12.958;2024-01-11T06:41:51;57.88;;;22.00;;
9745;SDS011;4912;50.836;12.958;2024-01-11T06:44:22;54.83;;;23.33;;
9745;SDS011;4912;50.836;12.958;2024-01-11T06:46:52;54.00;;;21.10;;
9745;SDS011;4912;50.836;12.958;2024-01-11T06:49:23;56.47;;;21.63;;
9745;SDS011;4912;50.836;12.958;2024-01-11T06:51:54;58.72;;;23.05;;
9745;SDS011;4912;50.836;12.958;2024-01-11T06:54:24;57.67;;;21.58;;
9745;SDS011;4912;50.836;12.958;2024-01-11T06:56:59;54.57;;;22.43;;
9745;SDS011;4912;50.836;12.958;2024-01-11T06:59:30;54.83;;;22.57;;
9745;SDS011;4912;50.836;12.958;2024-01-11T07:02:00;57.53;;;23.27;;
9745;SDS011;4912;50.836;12.958;2024-01-11T07:04:32;56.47;;;23.70;;
9745;SDS011;4912;50.836;12.958;2024-01-11T07:07:02;57.20;;;23.33;;
9745;SDS011;4912;50.836;12.958;2024-01-11T07:09:33;59.65;;;25.88;;
9745;SDS011;4912;50.836;12.958;2024-01-11T07:12:07;64.72;;;24.33;;
9745;SDS011;4912;50.836;12.958;2024-01-11T07:14:38;62.03;;;23.93;;
9745;SDS011;4912;50.836;12.958;2024-01-11T07:17:09;53.00;;;22.38;;
9745;SDS011;4912;50.836;12.958;2024-01-11T07:19:39;57.28;;;23.88;;
9745;SDS011;4912;50.836;12.958;2024-01-11T07:22:10;54.90;;;22.15;;
9745;SDS011;4912;50.836;12.958;2024-01-11T07:24:40;56.28;;;23.10;;
9745;SDS011;4912;50.836;12.958;2024-01-11T07:27:14;60.60;;;23.23;;
9745;SDS011;4912;50.836;12.958;2024-01-11T07:29:44;73.50;;;30.00;;
9745;SDS011;4912;50.836;12.958;2024-01-11T07:32:15;62.42;;;26.10;;
9745;SDS011;4912;50.836;12.958;2024-01-11T07:34:45;63.05;;;24.52;;
9745;SDS011;4912;50.836;12.958;2024-01-11T07:37:16;57.72;;;24.13;;
9745;SDS011;4912;50.836;12.958;2024-01-11T07:39:47;62.67;;;24.30;;
9745;SDS011;4912;50.836;12.958;2024-01-11T07:42:20;62.33;;;26.98;;
9745;SDS011;4912;50.836;12.958;2024-01-11T07:44:51;61.60;;;25.77;;
9745;SDS011;4912;50.836;12.958;2024-01-11T07:47:21;56.03;;;24.80;;
9745;SDS011;4912;50.836;12.958;2024-01-11T07:49:52;63.08;;;25.42;;
9745;SDS011;4912;50.836;12.958;2024-01-11T07:52:23;66.10;;;25.45;;
9745;SDS011;4912;50.836;12.958;2024-01-11T07:54:53;62.13;;;24.55;;
9745;SDS011;4912;50.836;12.958;2024-01-11T07:57:29;70.67;;;27.57;;
9745;SDS011;4912;50.836;12.958;2024-01-11T07:59:57;68.18;;;27.17;;
9745;SDS011;4912;50.836;12.958;2024-01-11T08:02:38;67.28;;;26.48;;
9745;SDS011;4912;50.836;12.958;2024-01-11T08:05:09;69.55;;;26.80;;
9745;SDS011;4912;50.836;12.958;2024-01-11T08:07:39;62.03;;;26.63;;
9745;SDS011;4912;50.836;12.958;2024-01-11T08:10:11;64.30;;;26.27;;
9745;SDS011;4912;50.836;12.958;2024-01-11T08:12:44;58.72;;;24.85;;
9745;SDS011;4912;50.836;12.958;2024-01-11T08:15:15;67.57;;;25.40;;
9745;SDS011;4912;50.836;12.958;2024-01-11T08:17:45;55.08;;;24.80;;
9745;SDS011;4912;50.836;12.958;2024-01-11T08:20:16;59.72;;;25.17;;
9745;SDS011;4912;50.836;12.958;2024-01-11T08:22:47;63.55;;;26.80;;
9745;SDS011;4912;50.836;12.958;2024-01-11T08:25:17;63.58;;;27.38;;
9745;SDS011;4912;50.836;12.958;2024-01-11T08:27:51;66.10;;;27.05;;
9745;SDS011;4912;50.836;12.958;2024-01-11T08:30:21;63.40;;;26.27;;
9745;SDS011;4912;50.836;12.958;2024-01-11T08:32:52;70.78;;;27.30;;
9745;SDS011;4912;50.836;12.958;2024-01-11T08:35:23;72.25;;;29.73;;
9745;SDS011;4912;50.836;12.958;2024-01-11T08:37:54;64.43;;;26.13;;
9745;SDS011;4912;50.836;12.958;2024-01-11T08:40:25;62.17;;;26.35;;
9745;SDS011;4912;50.836;12.958;2024-01-11T08:42:58;66.88;;;27.42;;
9745;SDS011;4912;50.836;12.958;2024-01-11T08:45:30;65.80;;;26.73;;
9745;SDS011;4912;50.836;12.958;2024-01-11T08:48:00;67.90;;;28.25;;
9745;SDS011;4912;50.836;12.958;2024-01-11T08:50:31;72.07;;;27.67;;
9745;SDS011;4912;50.836;12.958;2024-01-11T08:53:02;63.13;;;27.50;;
9745;SDS011;4912;50.836;12.958;2024-01-11T08:55:33;70.72;;;28.58;;
9745;SDS011;4912;50.836;12.958;2024-01-11T08:58:06;62.13;;;26.63;;
9745;SDS011;4912;50.836;12.958;2024-01-11T09:00:37;66.37;;;27.93;;
9745;SDS011;4912;50.836;12.958;2024-01-11T09:03:08;66.03;;;27.35;;
9745;SDS011;4912;50.836;12.958;2024-01-11T09:05:39;65.78;;;27.10;;
9745;SDS011;4912;50.836;12.958;2024-01-11T09:08:10;61.15;;;27.65;;
9745;SDS011;4912;50.836;12.958;2024-01-11T09:10:40;64.75;;;28.15;;
9745;SDS011;4912;50.836;12.958;2024-01-11T09:13:14;71.72;;;28.55;;
9745;SDS011;4912;50.836;12.958;2024-01-11T09:15:45;66.67;;;29.03;;
9745;SDS011;4912;50.836;12.958;2024-01-11T09:18:16;71.82;;;29.92;;
9745;SDS011;4912;50.836;12.958;2024-01-11T09:20:47;66.80;;;29.67;;
9745;SDS011;4912;50.836;12.958;2024-01-11T09:23:17;69.30;;;29.08;;
9745;SDS011;4912;50.836;12.958;2024-01-11T09:25:48;65.90;;;28.38;;
9745;SDS011;4912;50.836;12.958;2024-01-11T09:28:21;66.53;;;28.55;;
9745;SDS011;4912;50.836;12.958;2024-01-11T09:30:52;69.10;;;28.00;;
9745;SDS011;4912;50.836;12.958;2024-01-11T09:33:27;66.27;;;29.27;;
9745;SDS011;4912;50.836;12.958;2024-01-11T09:35:58;66.55;;;29.95;;
9745;SDS011;4912;50.836;12.958;2024-01-11T09:38:29;63.73;;;29.60;;
9745;SDS011;4912;50.836;12.958;2024-01-11T09:41:04;57.17;;;28.40;;
9745;SDS011;4912;50.836;12.958;2024-01-11T09:43:43;69.33;;;28.77;;
9745;SDS011;4912;50.836;12.958;2024-01-11T09:46:15;62.20;;;29.20;;
9745;SDS011;4912;50.836;12.958;2024-01-11T09:48:47;59.57;;;27.77;;
9745;SDS011;4912;50.836;12.958;2024-01-11T09:51:19;54.93;;;25.20;;
9745;SDS011;4912;50.836;12.958;2024-01-11T09:53:50;53.58;;;26.10;;
9745;SDS011;4912;50.836;12.958;2024-01-11T09:56:25;56.17;;;28.00;;
9745;SDS011;4912;50.836;12.958;2024-01-11T09:58:59;59.20;;;27.33;;
9745;SDS011;4912;50.836;12.958;2024-01-11T10:01:33;57.47;;;27.03;;
9745;SDS011;4912;50.836;12.958;2024-01-11T10:04:04;61.23;;;27.10;;
9745;SDS011;4912;50.836;12.958;2024-01-11T10:06:36;56.03;;;26.93;;
9745;SDS011;4912;50.836;12.958;2024-01-11T10:09:08;60.93;;;27.23;;
9745;SDS011;4912;50.836;12.958;2024-01-11T10:14:13;58.07;;;25.80;;
9745;SDS011;4912;50.836;12.958;2024-01-11T10:32:04;64.60;;;27.73;;
9745;SDS011;4912;50.836;12.958;2024-01-11T10:34:36;63.03;;;29.23;;
9745;SDS011;4912;50.836;12.958;2024-01-11T10:37:08;57.97;;;27.97;;
9745;SDS011;4912;50.836;12.958;2024-01-11T10:42:10;56.83;;;27.30;;
9745;SDS011;4912;50.836;12.958;2024-01-11T10:44:46;62.70;;;29.13;;
9745;SDS011;4912;50.836;12.958;2024-01-11T10:47:21;55.47;;;28.23;;
9745;SDS011;4912;50.836;12.958;2024-01-11T10:49:54;53.03;;;26.47;;
9745;SDS011;4912;50.836;12.958;2024-01-11T10:52:28;59.83;;;28.77;;
9745;SDS011;4912;50.836;12.958;2024-01-11T10:55:06;59.03;;;28.00;;
9745;SDS011;4912;50.836;12.958;2024-01-11T10:57:37;57.67;;;29.07;;
9745;SDS011;4912;50.836;12.958;2024-01-11T11:00:12;62.50;;;28.53;;
9745;SDS011;4912;50.836;12.958;2024-01-11T11:02:43;56.67;;;28.53;;
9745;SDS011;4912;50.836;12.958;2024-01-11T11:05:16;56.37;;;27.83;;
9745;SDS011;4912;50.836;12.958;2024-01-11T11:07:51;57.20;;;26.57;;
9745;SDS011;4912;50.836;12.958;2024-01-11T11:10:22;53.47;;;26.00;;
9745;SDS011;4912;50.836;12.958;2024-01-11T11:12:56;53.57;;;25.10;;
9745;SDS011;4912;50.836;12.958;2024-01-11T11:18:02;52.60;;;25.67;;
9745;SDS011;4912;50.836;12.958;2024-01-11T11:20:34;49.27;;;24.43;;
9745;SDS011;4912;50.836;12.958;2024-01-11T11:23:05;53.97;;;26.45;;
9745;SDS011;4912;50.836;12.958;2024-01-11T11:25:37;55.88;;;27.58;;
9745;SDS011;4912;50.836;12.958;2024-01-11T11:28:11;55.35;;;28.42;;
9745;SDS011;4912;50.836;12.958;2024-01-11T11:30:48;57.22;;;29.13;;
9745;SDS011;4912;50.836;12.958;2024-01-11T11:33:20;54.03;;;29.65;;
9745;SDS011;4912;50.836;12.958;2024-01-11T11:35:53;59.72;;;31.15;;
9745;SDS011;4912;50.836;12.958;2024-01-11T11:38:28;54.80;;;30.33;;
9745;SDS011;4912;50.836;12.958;2024-01-11T11:41:00;57.80;;;29.63;;
9745;SDS011;4912;50.836;12.958;2024-01-11T11:46:05;54.95;;;30.58;;
9745;SDS011;4912;50.836;12.958;2024-01-11T12:44:19;60.88;;;33.80;;
9745;SDS011;4912;50.836;12.958;2024-01-11T12:46:53;57.40;;;33.38;;
9745;SDS011;4912;50.836;12.958;2024-01-11T12:49:24;61.95;;;33.97;;
9745;SDS011;4912;50.836;12.958;2024-01-11T12:51:55;64.90;;;35.63;;
9745;SDS011;4912;50.836;12.958;2024-01-11T12:54:25;63.63;;;35.97;;
9745;SDS011;4912;50.836;12.958;2024-01-11T12:56:56;67.43;;;35.67;;
9745;SDS011;4912;50.836;12.958;2024-01-11T12:59:27;64.63;;;35.40;;
9745;SDS011;4912;50.836;12.958;2024-01-11T13:04:32;68.90;;;36.05;;
9745;SDS011;4912;50.836;12.958;2024-01-11T13:07:04;67.93;;;35.05;;
9745;SDS011;4912;50.836;12.958;2024-01-11T13:09:34;63.65;;;35.35;;
9745;SDS011;4912;50.836;12.958;2024-01-11T13:12:02;66.93;;;35.17;;
9745;SDS011;4912;50.836;12.958;2024-01-11T13:14:34;67.40;;;34.72;;
9745;SDS011;4912;50.836;12.958;2024-01-11T13:17:09;69.00;;;33.88;;
9745;SDS011;4912;50.836;12.958;2024-01-11T13:19:39;67.15;;;35.05;;
9745;SDS011;4912;50.836;12.958;2024-01-11T13:22:10;65.85;;;33.78;;
9745;SDS011;4912;50.836;12.958;2024-01-11T13:24:41;68.43;;;35.20;;
9745;SDS011;4912;50.836;12.958;2024-01-11T13:27:12;66.22;;;33.75;;
9745;SDS011;4912;50.836;12.958;2024-01-11T13:29:42;72.07;;;34.88;;
9745;SDS011;4912;50.836;12.958;2024-01-11T13:32:16;70.80;;;33.42;;
9745;SDS011;4912;50.836;12.958;2024-01-11T13:34:49;70.60;;;34.70;;
9745;SDS011;4912;50.836;12.958;2024-01-11T13:37:20;63.65;;;31.10;;
9745;SDS011;4912;50.836;12.958;2024-01-11T13:39:50;61.88;;;31.17;;
9745;SDS011;4912;50.836;12.958;2024-01-11T13:42:21;67.43;;;32.13;;
9745;SDS011;4912;50.836;12.958;2024-01-11T13:44:51;66.32;;;30.85;;
9745;SDS011;4912;50.836;12.958;2024-01-11T13:47:25;71.23;;;31.47;;
9745;SDS011;4912;50.836;12.958;2024-01-11T13:49:56;64.23;;;29.23;;
9745;SDS011;4912;50.836;12.958;2024-01-11T13:52:27;62.92;;;30.10;;
9745;SDS011;4912;50.836;12.958;2024-01-11T13:54:57;59.58;;;27.83;;
9745;SDS011;4912;50.836;12.958;2024-01-11T13:57:28;66.60;;;30.77;;
9745;SDS011;4912;50.836;12.958;2024-01-11T14:00:00;68.27;;;30.07;;
9745;SDS011;4912;50.836;12.958;2024-01-11T14:02:34;64.53;;;30.08;;
9745;SDS011;4912;50.836;12.958;2024-01-11T14:05:06;71.40;;;32.43;;
9745;SDS011;4912;50.836;12.958;2024-01-11T14:07:40;71.77;;;29.80;;
9745;SDS011;4912;50.836;12.958;2024-01-11T14:10:13;63.07;;;29.47;;
9745;SDS011;4912;50.836;12.958;2024-01-11T14:12:45;76.50;;;33.27;;
9745;SDS011;4912;50.836;12.958;2024-01-11T14:15:16;74.70;;;33.27;;
9745;SDS011;4912;50.836;12.958;2024-01-11T14:17:50;72.72;;;32.60;;
9745;SDS011;4912;50.836;12.958;2024-01-11T14:20:21;67.67;;;31.77;;
9745;SDS011;4912;50.836;12.958;2024-01-11T14:22:49;71.00;;;33.27;;
9745;SDS011;4912;50.836;12.958;2024-01-11T14:25:21;65.32;;;31.85;;
9745;SDS011;4912;50.836;12.958;2024-01-11T14:27:56;65.17;;;33.10;;
9745;SDS011;4912;50.836;12.958;2024-01-11T14:30:27;70.10;;;34.50;;
9745;SDS011;4912;50.836;12.958;2024-01-11T14:33:00;60.63;;;33.30;;
9745;SDS011;4912;50.836;12.958;2024-01-11T14:35:31;64.70;;;32.65;;
9745;SDS011;4912;50.836;12.958;2024-01-11T14:38:02;64.82;;;33.35;;
9745;SDS011;4912;50.836;12.958;2024-01-11T14:40:33;65.05;;;31.55;;
9745;SDS011;4912;50.836;12.958;2024-01-11T14:43:04;63.30;;;30.80;;
9745;SDS011;4912;50.836;12.958;2024-01-11T14:45:35;70.53;;;33.05;;
9745;SDS011;4912;50.836;12.958;2024-01-11T14:48:08;66.25;;;31.67;;
9745;SDS011;4912;50.836;12.958;2024-01-11T14:50:39;58.77;;;28.73;;
9745;SDS011;4912;50.836;12.958;2024-01-11T14:53:11;47.83;;;22.48;;
9745;SDS011;4912;50.836;12.958;2024-01-11T14:55:41;57.77;;;26.90;;
9745;SDS011;4912;50.836;12.958;2024-01-11T14:58:12;58.38;;;25.75;;
9745;SDS011;4912;50.836;12.958;2024-01-11T15:00:43;50.70;;;25.02;;
9745;SDS011;4912;50.836;12.958;2024-01-11T15:03:16;47.15;;;22.63;;
9745;SDS011;4912;50.836;12.958;2024-01-11T15:05:47;48.03;;;22.83;;
9745;SDS011;4912;50.836;12.958;2024-01-11T15:08:19;47.53;;;20.17;;
9745;SDS011;4912;50.836;12.958;2024-01-11T15:10:50;51.15;;;22.70;;
9745;SDS011;4912;50.836;12.958;2024-01-11T15:13:20;57.97;;;23.27;;
9745;SDS011;4912;50.836;12.958;2024-01-11T15:15:51;51.67;;;23.20;;
9745;SDS011;4912;50.836;12.958;2024-01-11T15:18:24;48.47;;;20.63;;
9745;SDS011;4912;50.836;12.958;2024-01-11T15:20:55;43.50;;;19.90;;
9745;SDS011;4912;50.836;12.958;2024-01-11T15:23:26;45.72;;;20.00;;
9745;SDS011;4912;50.836;12.958;2024-01-11T15:25:56;42.72;;;19.23;;
9745;SDS011;4912;50.836;12.958;2024-01-11T15:28:27;45.03;;;19.30;;
9745;SDS011;4912;50.836;12.958;2024-01-11T15:30:58;47.15;;;19.70;;
9745;SDS011;4912;50.836;12.958;2024-01-11T15:33:35;40.90;;;18.23;;
9745;SDS011;4912;50.836;12.958;2024-01-11T15:36:06;51.80;;;21.10;;
9745;SDS011;4912;50.836;12.958;2024-01-11T15:38:38;39.37;;;18.30;;
9745;SDS011;4912;50.836;12.958;2024-01-11T15:41:09;42.85;;;18.67;;
9745;SDS011;4912;50.836;12.958;2024-01-11T15:43:39;43.90;;;19.77;;
9745;SDS011;4912;50.836;12.958;2024-01-11T15:46:10;48.95;;;19.58;;
9745;SDS011;4912;50.836;12.958;2024-01-11T15:48:43;51.95;;;20.05;;
9745;SDS011;4912;50.836;12.958;2024-01-11T15:51:14;45.70;;;19.37;;
9745;SDS011;4912;50.836;12.958;2024-01-11T15:53:45;46.55;;;19.17;;
9745;SDS011;4912;50.836;12.958;2024-01-11T15:56:16;45.70;;;19.27;;
9745;SDS011;4912;50.836;12.958;2024-01-11T15:58:47;45.75;;;19.85;;
9745;SDS011;4912;50.836;12.958;2024-01-11T16:01:17;48.35;;;20.73;;
9745;SDS011;4912;50.836;12.958;2024-01-11T16:03:51;47.70;;;19.52;;
9745;SDS011;4912;50.836;12.958;2024-01-11T16:06:21;47.57;;;20.60;;
9745;SDS011;4912;50.836;12.958;2024-01-11T16:08:52;47.00;;;20.35;;
9745;SDS011;4912;50.836;12.958;2024-01-11T16:11:23;45.97;;;19.92;;
9745;SDS011;4912;50.836;12.958;2024-01-11T16:13:56;46.90;;;20.97;;
9745;SDS011;4912;50.836;12.958;2024-01-11T16:16:27;46.78;;;20.25;;
9745;SDS011;4912;50.836;12.958;2024-01-11T16:19:00;49.58;;;20.83;;
9745;SDS011;4912;50.836;12.958;2024-01-11T16:21:31;43.93;;;19.33;;
9745;SDS011;4912;50.836;12.958;2024-01-11T16:24:03;48.13;;;20.90;;
9745;SDS011;4912;50.836;12.958;2024-01-11T16:26:34;50.77;;;21.93;;
9745;SDS011;4912;50.836;12.958;2024-01-11T16:29:05;47.25;;;19.85;;